Time;durP1;ratioP1;P1;durP2;ratioP2;P2;SDS_P1;SDS_P2;PMS_P1;PMS_P2;Temp;Humidity;BMP_temperature;BMP_pressure;BME280_temperature;BME280_humidity;BME280_pressure;Samples;Min_cycle;Max_cycle;Signal;HPM_P1;HPM_P2
2022/05/05 00:00:38;;;;;;;;;22.50;18.75;;;;;;;;5035643;28;45479;-65
2022/05/05 00:03:03;;;;;;;;;18.00;16.75;;;;;;;;5029162;28;45754;-65
2022/05/05 00:05:28;;;;;;;;;15.00;15.00;;;;;;;;5025528;28;45577;-64
2022/05/05 00:07:54;;;;;;;;;20.50;20.50;;;;;;;;5032916;28;45629;-66
2022/05/05 00:15:46;;;;;;;;;19.25;19.25;;;;;;;;5034759;28;45555;-65
2022/05/05 00:18:12;;;;;;;;;22.25;21.25;;;;;;;;5034371;28;46383;-66
2022/05/05 00:20:37;;;;;;;;;18.50;17.75;;;;;;;;5033495;28;45345;-65
2022/05/05 00:23:02;;;;;;;;;20.50;20.50;;;;;;;;5033810;28;45433;-65
2022/05/05 00:25:27;;;;;;;;;22.25;20.75;;;;;;;;5032062;28;45354;-64
2022/05/05 00:27:52;;;;;;;;;20.00;20.00;;;;;;;;5035762;28;46005;-64
2022/05/05 00:30:18;;;;;;;;;15.33;12.33;;;;;;;;5033489;28;45298;-65
2022/05/05 00:32:43;;;;;;;;;14.25;13.25;;;;;;;;5033785;28;45346;-66
2022/05/05 00:35:08;;;;;;;;;15.25;15.00;;;;;;;;5033866;28;45452;-65
2022/05/05 00:37:33;;;;;;;;;16.50;16.50;;;;;;;;5033579;28;46212;-64
2022/05/05 00:39:59;;;;;;;;;12.50;12.50;;;;;;;;5035094;28;45292;-64
2022/05/05 00:42:24;;;;;;;;;14.00;14.00;;;;;;;;5034141;28;45526;-65
2022/05/05 00:44:49;;;;;;;;;11.25;11.25;;;;;;;;5033876;28;45597;-65
2022/05/05 00:47:16;;;;;;;;;15.50;14.50;;;;;;;;5033528;28;46459;-66
2022/05/05 00:49:42;;;;;;;;;9.75;8.50;;;;;;;;5032908;28;45342;-65
2022/05/05 00:52:07;;;;;;;;;11.00;11.00;;;;;;;;5034341;28;47713;-65
2022/05/05 00:54:33;;;;;;;;;11.25;10.25;;;;;;;;5035102;28;45431;-66
2022/05/05 00:56:58;;;;;;;;;16.00;14.00;;;;;;;;5032039;28;45632;-66
2022/05/05 00:59:24;;;;;;;;;13.75;13.75;;;;;;;;5033598;28;45360;-66
2022/05/05 01:01:49;;;;;;;;;10.75;10.50;;;;;;;;5033685;28;45365;-65
2022/05/05 01:04:14;;;;;;;;;13.25;13.25;;;;;;;;5033413;28;45518;-65
2022/05/05 01:06:40;;;;;;;;;13.25;13.00;;;;;;;;5033927;28;46408;-65
2022/05/05 01:09:05;;;;;;;;;11.25;11.00;;;;;;;;5031766;28;45644;-65
2022/05/05 01:11:31;;;;;;;;;10.25;10.25;;;;;;;;5033334;28;45441;-65
2022/05/05 01:13:56;;;;;;;;;13.50;12.50;;;;;;;;5033187;28;45467;-65
2022/05/05 01:16:23;;;;;;;;;11.00;10.00;;;;;;;;5032146;28;46210;-65
2022/05/05 01:18:51;;;;;;;;;13.00;13.00;;;;;;;;5034028;28;45357;-66
2022/05/05 01:21:19;;;;;;;;;11.75;9.75;;;;;;;;5031463;28;45490;-66
2022/05/05 01:23:44;;;;;;;;;10.00;10.00;;;;;;;;5033004;28;45535;-64
2022/05/05 01:28:54;;;;;;;;;9.00;9.00;;;;;;;;5033166;28;45534;-64
2022/05/05 01:31:19;;;;;;;;;9.00;9.00;;;;;;;;5030986;28;45633;-65
2022/05/05 01:33:44;;;;;;;;;12.75;11.00;;;;;;;;5035040;28;45434;-65
2022/05/05 01:36:11;;;;;;;;;11.50;11.50;;;;;;;;5026229;28;47970;-65
2022/05/05 01:38:36;;;;;;;;;12.25;11.25;;;;;;;;5024673;28;45393;-65
2022/05/05 01:41:03;;;;;;;;;13.00;13.00;;;;;;;;5032814;28;45373;-64
2022/05/05 01:43:28;;;;;;;;;11.25;11.25;;;;;;;;5033130;28;45480;-65
2022/05/05 01:45:53;;;;;;;;;13.50;12.50;;;;;;;;5034529;28;46221;-66
2022/05/05 01:48:18;;;;;;;;;11.00;11.00;;;;;;;;5031213;28;46222;-66
2022/05/05 01:50:44;;;;;;;;;16.25;12.25;;;;;;;;5030940;28;45456;-65
2022/05/05 01:53:10;;;;;;;;;12.50;11.75;;;;;;;;5032607;28;45452;-66
2022/05/05 01:55:35;;;;;;;;;11.75;11.00;;;;;;;;5031327;28;48414;-66
2022/05/05 01:58:01;;;;;;;;;15.75;13.25;;;;;;;;5034173;28;45392;-65
2022/05/05 02:00:26;;;;;;;;;15.50;14.25;;;;;;;;5031742;28;45317;-65
2022/05/05 02:02:52;;;;;;;;;13.00;12.25;;;;;;;;5032407;28;45606;-66
2022/05/05 02:05:17;;;;;;;;;13.75;12.25;;;;;;;;5030395;28;46350;-65
2022/05/05 02:07:43;;;;;;;;;12.50;12.50;;;;;;;;5028334;28;46297;-65
2022/05/05 02:10:09;;;;;;;;;14.25;13.00;;;;;;;;5031552;28;45689;-65
2022/05/05 02:12:38;;;;;;;;;10.50;10.50;;;;;;;;5031963;28;45559;-63
2022/05/05 02:15:06;;;;;;;;;10.75;9.75;;;;;;;;5030394;28;47131;-64
2022/05/05 02:17:31;;;;;;;;;12.25;11.00;;;;;;;;5031883;28;45697;-65
2022/05/05 02:19:56;;;;;;;;;11.50;10.25;;;;;;;;5032180;28;45646;-64
2022/05/05 02:22:22;;;;;;;;;10.75;10.75;;;;;;;;5032231;28;45616;-65
2022/05/05 02:24:47;;;;;;;;;9.00;9.00;;;;;;;;5034274;28;45655;-65
2022/05/05 02:27:12;;;;;;;;;11.00;10.25;;;;;;;;5031947;28;45770;-64
2022/05/05 02:29:37;;;;;;;;;11.75;10.75;;;;;;;;5032108;28;45792;-64
2022/05/05 02:32:03;;;;;;;;;10.50;9.50;;;;;;;;5031780;28;45567;-64
2022/05/05 02:34:28;;;;;;;;;13.25;11.50;;;;;;;;5047431;28;48212;-64
2022/05/05 02:39:37;;;;;;;;;13.25;12.50;;;;;;;;5027355;28;45540;-65
2022/05/05 02:42:02;;;;;;;;;10.00;9.00;;;;;;;;5051291;28;45675;-64
2022/05/05 02:44:28;;;;;;;;;14.25;13.25;;;;;;;;5022852;28;46170;-65
2022/05/05 02:46:53;;;;;;;;;12.75;12.75;;;;;;;;5031125;28;45413;-65
2022/05/05 02:49:18;;;;;;;;;16.75;14.00;;;;;;;;5014028;28;45672;-65
2022/05/05 02:51:45;;;;;;;;;15.50;13.75;;;;;;;;5032386;28;45528;-65
2022/05/05 02:56:54;;;;;;;;;17.50;13.50;;;;;;;;5029512;28;45429;-65
2022/05/05 02:59:19;;;;;;;;;13.75;13.75;;;;;;;;5031679;28;45320;-64
2022/05/05 03:01:45;;;;;;;;;14.25;13.50;;;;;;;;5029430;28;45460;-64
2022/05/05 03:04:11;;;;;;;;;16.50;14.75;;;;;;;;5031914;28;46517;-64
2022/05/05 03:06:36;;;;;;;;;18.00;16.50;;;;;;;;5033216;28;45355;-64
2022/05/05 03:09:02;;;;;;;;;14.25;14.25;;;;;;;;5031779;28;45353;-64
2022/05/05 03:11:27;;;;;;;;;13.00;13.00;;;;;;;;5031643;28;45765;-65
2022/05/05 03:13:52;;;;;;;;;14.50;14.50;;;;;;;;5031428;28;45626;-64
2022/05/05 03:16:17;;;;;;;;;17.50;15.50;;;;;;;;5031513;28;45345;-64
2022/05/05 03:18:43;;;;;;;;;13.75;13.75;;;;;;;;5033728;28;45325;-64
2022/05/05 03:21:08;;;;;;;;;17.00;17.00;;;;;;;;5031504;28;45466;-64
2022/05/05 03:23:33;;;;;;;;;16.50;15.25;;;;;;;;5030706;28;45679;-65
2022/05/05 03:25:59;;;;;;;;;15.25;14.75;;;;;;;;5031057;28;45408;-64
2022/05/05 03:28:24;;;;;;;;;16.50;15.50;;;;;;;;5032627;28;45398;-65
2022/05/05 03:30:49;;;;;;;;;13.75;13.75;;;;;;;;5033426;28;45432;-65
2022/05/05 03:33:14;;;;;;;;;18.75;17.25;;;;;;;;5029734;28;47371;-65
2022/05/05 03:35:39;;;;;;;;;17.25;16.00;;;;;;;;5031306;28;45425;-65
2022/05/05 03:38:05;;;;;;;;;17.75;17.25;;;;;;;;5032037;28;45589;-65
2022/05/05 03:40:30;;;;;;;;;20.25;18.50;;;;;;;;5033526;28;45427;-65
2022/05/05 03:42:55;;;;;;;;;15.25;15.25;;;;;;;;5036665;28;46633;-65
2022/05/05 03:45:20;;;;;;;;;16.25;14.50;;;;;;;;5034484;28;45577;-65
2022/05/05 03:47:45;;;;;;;;;19.50;17.00;;;;;;;;5030250;28;45346;-65
2022/05/05 03:50:11;;;;;;;;;13.75;13.75;;;;;;;;5023331;28;45402;-65
2022/05/05 03:52:36;;;;;;;;;16.75;15.50;;;;;;;;5034421;28;45614;-65
2022/05/05 03:55:01;;;;;;;;;18.50;18.00;;;;;;;;5036139;28;45544;-65
2022/05/05 03:57:26;;;;;;;;;20.00;20.00;;;;;;;;5034967;28;45528;-65
2022/05/05 03:59:52;;;;;;;;;20.00;18.50;;;;;;;;5034360;28;45405;-64
2022/05/05 04:02:17;;;;;;;;;12.75;11.25;;;;;;;;5034178;28;45522;-65
2022/05/05 04:04:42;;;;;;;;;15.25;12.75;;;;;;;;5034405;28;45847;-64
2022/05/05 04:07:07;;;;;;;;;18.25;17.75;;;;;;;;5035600;28;45421;-64
2022/05/05 04:09:33;;;;;;;;;20.00;18.25;;;;;;;;5035567;28;45728;-65
2022/05/05 04:11:58;;;;;;;;;18.00;17.00;;;;;;;;5032435;28;46118;-64
2022/05/05 04:14:23;;;;;;;;;15.00;15.00;;;;;;;;5034047;28;47350;-64
2022/05/05 04:16:49;;;;;;;;;20.25;18.00;;;;;;;;5034353;28;45447;-64
2022/05/05 04:19:14;;;;;;;;;17.00;17.00;;;;;;;;5034003;28;45713;-64
2022/05/05 04:21:39;;;;;;;;;16.75;16.00;;;;;;;;5036076;28;45638;-64
2022/05/05 04:24:05;;;;;;;;;16.00;16.00;;;;;;;;5034018;28;45452;-64
2022/05/05 04:26:30;;;;;;;;;15.75;15.75;;;;;;;;5034128;28;45393;-64
2022/05/05 04:28:58;;;;;;;;;17.75;15.25;;;;;;;;5034061;28;45453;-64
2022/05/05 04:31:26;;;;;;;;;18.00;18.00;;;;;;;;5033493;28;45319;-64
2022/05/05 04:33:52;;;;;;;;;14.00;14.00;;;;;;;;5035778;28;45252;-64
2022/05/05 04:36:17;;;;;;;;;15.00;13.75;;;;;;;;5033869;28;45392;-64
2022/05/05 04:38:42;;;;;;;;;12.50;11.00;;;;;;;;5033759;28;45602;-64
2022/05/05 04:41:07;;;;;;;;;16.75;14.75;;;;;;;;5033564;28;46416;-64
2022/05/05 04:43:33;;;;;;;;;24.00;19.75;;;;;;;;5033474;28;45451;-65
2022/05/05 04:45:59;;;;;;;;;19.00;15.00;;;;;;;;5035506;28;45435;-64
2022/05/05 04:48:24;;;;;;;;;18.00;17.00;;;;;;;;5034130;28;45762;-64
2022/05/05 04:50:49;;;;;;;;;21.75;17.25;;;;;;;;5031876;28;46566;-64
2022/05/05 04:53:14;;;;;;;;;18.50;18.25;;;;;;;;5033722;28;45321;-64
2022/05/05 04:55:39;;;;;;;;;15.25;15.00;;;;;;;;5033735;28;45445;-63
2022/05/05 04:58:05;;;;;;;;;21.50;20.00;;;;;;;;5034572;28;45529;-63
2022/05/05 05:00:30;;;;;;;;;12.25;12.25;;;;;;;;5034369;28;45508;-64
2022/05/05 05:02:56;;;;;;;;;21.75;19.25;;;;;;;;5033391;28;45497;-64
2022/05/05 05:05:21;;;;;;;;;18.00;17.00;;;;;;;;5033398;28;45385;-64
2022/05/05 05:07:46;;;;;;;;;23.50;20.75;;;;;;;;5033428;28;45481;-64
2022/05/05 05:10:12;;;;;;;;;19.50;18.75;;;;;;;;5033068;28;45601;-64
2022/05/05 05:12:37;;;;;;;;;20.00;18.50;;;;;;;;5030469;28;45354;-64
2022/05/05 05:15:02;;;;;;;;;29.75;26.00;;;;;;;;5030291;28;45498;-64
2022/05/05 05:17:27;;;;;;;;;29.25;24.00;;;;;;;;5025784;28;45425;-66
2022/05/05 05:19:53;;;;;;;;;20.25;18.75;;;;;;;;5033163;28;45609;-64
2022/05/05 05:22:18;;;;;;;;;20.25;19.00;;;;;;;;5033315;28;45345;-65
2022/05/05 05:24:43;;;;;;;;;28.50;27.00;;;;;;;;5035339;28;47109;-65
2022/05/05 05:27:09;;;;;;;;;28.00;25.50;;;;;;;;5033170;28;45472;-65
2022/05/05 05:29:34;;;;;;;;;25.50;20.75;;;;;;;;5031394;28;45856;-64
2022/05/05 05:31:59;;;;;;;;;24.50;21.75;;;;;;;;5032695;28;45388;-64
2022/05/05 05:34:25;;;;;;;;;27.00;21.50;;;;;;;;5033249;28;45378;-64
2022/05/05 05:36:50;;;;;;;;;27.25;26.25;;;;;;;;5035086;28;45643;-64
2022/05/05 05:39:18;;;;;;;;;25.50;25.50;;;;;;;;5032793;28;46193;-65
2022/05/05 05:41:43;;;;;;;;;22.75;22.75;;;;;;;;5044808;28;45476;-65
2022/05/05 05:44:09;;;;;;;;;23.50;23.00;;;;;;;;5021302;28;45472;-65
2022/05/05 05:46:34;;;;;;;;;28.50;27.50;;;;;;;;5032758;28;45532;-65
2022/05/05 05:48:59;;;;;;;;;29.75;25.50;;;;;;;;5034451;28;46203;-65
2022/05/05 05:51:25;;;;;;;;;24.25;23.00;;;;;;;;5031722;28;45532;-65
2022/05/05 05:53:50;;;;;;;;;28.75;27.00;;;;;;;;5028266;28;45467;-65
2022/05/05 05:56:16;;;;;;;;;21.25;21.25;;;;;;;;5037353;28;45401;-65
2022/05/05 05:58:41;;;;;;;;;29.25;27.75;;;;;;;;5032133;28;45620;-66
2022/05/05 06:01:06;;;;;;;;;24.75;23.75;;;;;;;;5031507;28;45575;-64
2022/05/05 06:06:16;;;;;;;;;29.25;27.25;;;;;;;;5032418;28;45475;-64
2022/05/05 06:08:41;;;;;;;;;27.75;24.25;;;;;;;;5030651;28;46550;-64
2022/05/05 06:11:06;;;;;;;;;28.75;26.25;;;;;;;;5032414;28;45412;-64
2022/05/05 06:13:31;;;;;;;;;33.75;28.00;;;;;;;;5032198;28;45420;-64
2022/05/05 06:15:57;;;;;;;;;27.00;24.00;;;;;;;;5034504;28;45426;-64
2022/05/05 06:18:22;;;;;;;;;27.50;25.25;;;;;;;;5032049;28;46476;-63
2022/05/05 06:20:47;;;;;;;;;24.75;23.25;;;;;;;;5032001;28;45424;-64
2022/05/05 06:23:12;;;;;;;;;24.50;23.75;;;;;;;;5032287;28;45456;-64
2022/05/05 06:25:38;;;;;;;;;31.00;28.00;;;;;;;;5032623;28;49769;-64
2022/05/05 06:28:04;;;;;;;;;29.00;29.00;;;;;;;;5033265;28;45747;-64
2022/05/05 06:30:29;;;;;;;;;24.50;23.25;;;;;;;;5032794;28;45362;-65
2022/05/05 06:32:54;;;;;;;;;24.00;24.00;;;;;;;;5032128;28;45558;-65
2022/05/05 06:35:20;;;;;;;;;25.75;24.00;;;;;;;;5032052;28;45258;-65
2022/05/05 06:37:50;;;;;;;;;23.75;23.75;;;;;;;;5031865;28;45492;-64
2022/05/05 06:40:15;;;;;;;;;27.75;25.25;;;;;;;;5029595;28;45552;-64
2022/05/05 06:42:41;;;;;;;;;30.25;25.00;;;;;;;;5029378;28;45362;-64
2022/05/05 06:45:07;;;;;;;;;31.50;28.75;;;;;;;;5028231;28;45448;-64
2022/05/05 06:47:32;;;;;;;;;31.25;28.25;;;;;;;;5030306;28;46458;-65
2022/05/05 06:49:57;;;;;;;;;30.25;29.25;;;;;;;;5031862;28;45329;-64
2022/05/05 06:52:22;;;;;;;;;28.50;25.00;;;;;;;;5032022;28;45358;-66
2022/05/05 06:54:48;;;;;;;;;30.75;29.50;;;;;;;;5033997;28;45392;-65
2022/05/05 06:57:14;;;;;;;;;27.50;25.75;;;;;;;;5031561;28;46806;-65
2022/05/05 06:59:39;;;;;;;;;21.50;21.50;;;;;;;;5026830;28;45489;-65
2022/05/05 07:02:05;;;;;;;;;22.75;22.75;;;;;;;;5019348;28;45481;-65
2022/05/05 07:07:15;;;;;;;;;27.25;25.25;;;;;;;;5031215;28;45904;-66
2022/05/05 07:12:25;;;;;;;;;30.25;27.25;;;;;;;;5030538;28;45424;-64
2022/05/05 07:14:50;;;;;;;;;27.75;22.75;;;;;;;;5034650;28;45567;-65
2022/05/05 07:17:15;;;;;;;;;28.00;26.00;;;;;;;;5033758;28;47685;-64
2022/05/05 07:19:41;;;;;;;;;22.75;17.25;;;;;;;;5035067;28;45559;-65
2022/05/05 07:22:06;;;;;;;;;24.50;22.50;;;;;;;;5036086;28;45392;-64
2022/05/05 07:24:31;;;;;;;;;26.00;24.50;;;;;;;;5036169;28;45579;-65
2022/05/05 07:26:57;;;;;;;;;26.25;25.00;;;;;;;;5045387;28;46560;-64
2022/05/05 07:29:22;;;;;;;;;33.50;26.25;;;;;;;;5024574;28;45476;-64
2022/05/05 07:31:47;;;;;;;;;31.75;30.25;;;;;;;;5033962;28;45459;-64
2022/05/05 07:34:13;;;;;;;;;28.00;27.25;;;;;;;;5034912;28;45373;-64
2022/05/05 07:36:38;;;;;;;;;28.50;25.25;;;;;;;;5034715;28;45550;-64
2022/05/05 07:39:04;;;;;;;;;29.25;26.50;;;;;;;;5034585;28;45472;-65
2022/05/05 07:41:30;;;;;;;;;26.25;25.25;;;;;;;;5034492;28;45418;-65
2022/05/05 07:43:55;;;;;;;;;24.75;23.75;;;;;;;;5034610;28;45609;-64
2022/05/05 07:46:20;;;;;;;;;27.50;26.00;;;;;;;;5032930;28;46491;-65
2022/05/05 07:48:46;;;;;;;;;29.50;28.75;;;;;;;;5036749;28;45423;-65
2022/05/05 07:51:11;;;;;;;;;23.50;22.50;;;;;;;;5034617;28;45483;-65
2022/05/05 07:53:36;;;;;;;;;27.75;27.00;;;;;;;;5034437;28;45399;-65
2022/05/05 07:56:02;;;;;;;;;29.50;27.75;;;;;;;;5034285;28;46419;-64
2022/05/05 07:58:27;;;;;;;;;33.25;27.25;;;;;;;;5034398;28;45521;-65
2022/05/05 08:00:52;;;;;;;;;29.25;25.75;;;;;;;;5035081;28;45454;-65
2022/05/05 08:03:18;;;;;;;;;30.00;28.50;;;;;;;;5032673;28;45439;-66
2022/05/05 08:05:44;;;;;;;;;27.50;24.00;;;;;;;;5032524;28;46224;-64
2022/05/05 08:08:09;;;;;;;;;30.75;27.75;;;;;;;;5034132;28;45491;-65
2022/05/05 08:10:34;;;;;;;;;21.75;21.75;;;;;;;;5034294;28;45587;-65
2022/05/05 08:12:59;;;;;;;;;22.00;22.00;;;;;;;;5047901;28;45304;-64
2022/05/05 08:15:24;;;;;;;;;24.00;22.75;;;;;;;;5033044;28;45712;-65
2022/05/05 08:17:50;;;;;;;;;24.50;22.75;;;;;;;;5029986;28;45413;-65
2022/05/05 08:20:15;;;;;;;;;24.25;23.50;;;;;;;;5022937;28;45561;-65
2022/05/05 08:22:40;;;;;;;;;31.00;25.25;;;;;;;;5034024;28;45820;-63
2022/05/05 08:30:33;;;;;;;;;30.25;27.00;;;;;;;;5035110;28;45350;-66
2022/05/05 08:32:58;;;;;;;;;26.25;24.50;;;;;;;;5033751;28;45903;-65
2022/05/05 08:35:24;;;;;;;;;25.25;25.25;;;;;;;;5033702;28;45764;-65
2022/05/05 08:37:52;;;;;;;;;21.25;20.25;;;;;;;;5032042;28;46285;-65
2022/05/05 08:40:17;;;;;;;;;20.50;20.50;;;;;;;;5033937;28;45626;-65
2022/05/05 08:42:43;;;;;;;;;20.75;20.75;;;;;;;;5035810;28;45544;-66
2022/05/05 08:45:09;;;;;;;;;22.50;19.75;;;;;;;;5027460;28;46698;-65
2022/05/05 08:47:36;;;;;;;;;15.25;14.00;;;;;;;;5025333;28;45420;-65
2022/05/05 08:50:01;;;;;;;;;17.00;16.00;;;;;;;;5033704;28;45729;-65
2022/05/05 08:52:31;;;;;;;;;22.50;20.25;;;;;;;;5033478;28;45408;-66
2022/05/05 08:54:56;;;;;;;;;20.00;19.25;;;;;;;;5030191;28;48946;-65
2022/05/05 08:57:22;;;;;;;;;21.75;17.75;;;;;;;;5031768;28;45435;-66
2022/05/05 08:59:47;;;;;;;;;22.25;21.50;;;;;;;;5033249;28;45383;-65
2022/05/05 09:02:12;;;;;;;;;24.00;22.25;;;;;;;;5033317;28;46123;-65
2022/05/05 09:04:42;;;;;;;;;15.75;15.75;;;;;;;;5033337;28;45654;-64
2022/05/05 09:07:07;;;;;;;;;17.25;16.25;;;;;;;;5031306;28;45378;-65
2022/05/05 09:09:33;;;;;;;;;9.25;9.25;;;;;;;;5033954;28;45616;-65
2022/05/05 09:12:04;;;;;;;;;14.50;13.50;;;;;;;;5033116;28;45461;-64
2022/05/05 09:14:37;;;;;;;;;13.00;13.00;;;;;;;;5033103;28;45770;-65
2022/05/05 09:17:03;;;;;;;;;15.25;12.75;;;;;;;;5031791;28;47004;-65
2022/05/05 09:19:28;;;;;;;;;14.50;12.00;;;;;;;;5033205;28;45546;-65
2022/05/05 09:21:53;;;;;;;;;11.75;11.75;;;;;;;;5035297;28;45581;-65
2022/05/05 09:24:35;;;;;;;;;8.25;8.00;;;;;;;;5031714;28;45772;-64
2022/05/05 09:27:17;;;;;;;;;7.25;7.25;;;;;;;;5032659;28;45564;-63
2022/05/05 09:29:43;;;;;;;;;7.50;7.50;;;;;;;;5033110;28;45441;-64
2022/05/05 09:32:11;;;;;;;;;11.75;11.00;;;;;;;;5032801;28;45644;-65
2022/05/05 09:34:37;;;;;;;;;7.75;6.00;;;;;;;;5032878;28;45692;-64
2022/05/05 09:37:31;;;;;;;;;9.00;9.00;;;;;;;;5033510;28;45311;-65
2022/05/05 09:39:58;;;;;;;;;8.00;7.00;;;;;;;;5013750;28;45449;-64
2022/05/05 09:42:43;;;;;;;;;8.00;8.00;;;;;;;;5031564;28;45394;-64
2022/05/05 09:45:27;;;;;;;;;5.75;5.75;;;;;;;;5030706;28;49172;-63
2022/05/05 09:47:57;;;;;;;;;7.25;7.25;;;;;;;;5032390;28;45393;-65
2022/05/05 09:50:24;;;;;;;;;10.25;7.25;;;;;;;;5031309;28;45471;-64
2022/05/05 09:58:21;;;;;;;;;7.00;5.75;;;;;;;;5032223;28;45480;-65
2022/05/05 10:00:55;;;;;;;;;7.00;7.00;;;;;;;;5033853;28;45421;-63
2022/05/05 10:06:10;;;;;;;;;7.75;7.00;;;;;;;;5029918;28;45886;-64
2022/05/05 10:08:37;;;;;;;;;8.00;7.00;;;;;;;;5030461;28;45473;-65
2022/05/05 10:11:09;;;;;;;;;7.75;7.75;;;;;;;;5030854;28;45528;-66
2022/05/05 10:13:35;;;;;;;;;6.00;5.00;;;;;;;;5032519;28;45794;-66
2022/05/05 10:16:02;;;;;;;;;7.00;7.00;;;;;;;;5033811;28;47042;-67
2022/05/05 10:18:28;;;;;;;;;5.00;5.00;;;;;;;;5033037;28;45450;-64
2022/05/05 10:20:53;;;;;;;;;6.25;6.25;;;;;;;;5027927;28;45551;-64
2022/05/05 10:23:22;;;;;;;;;8.25;7.00;;;;;;;;5023586;28;45437;-64
2022/05/05 10:25:51;;;;;;;;;6.75;6.00;;;;;;;;5030121;28;47559;-65
2022/05/05 10:28:35;;;;;;;;;7.50;6.00;;;;;;;;5032282;28;45560;-65
2022/05/05 10:31:00;;;;;;;;;9.00;7.75;;;;;;;;5034182;28;45710;-64
2022/05/05 10:33:45;;;;;;;;;8.75;7.75;;;;;;;;5032474;28;45387;-64
2022/05/05 10:36:23;;;;;;;;;6.50;6.50;;;;;;;;5031602;28;46512;-66
2022/05/05 10:38:50;;;;;;;;;8.75;5.00;;;;;;;;5031695;28;45488;-65
2022/05/05 10:41:34;;;;;;;;;7.00;7.00;;;;;;;;5030531;28;45563;-64
2022/05/05 10:44:14;;;;;;;;;9.00;9.00;;;;;;;;5031877;28;45334;-64
2022/05/05 10:46:59;;;;;;;;;6.00;5.25;;;;;;;;5017754;28;45782;-65
2022/05/05 10:49:30;;;;;;;;;6.50;6.50;;;;;;;;5035592;28;45468;-64
2022/05/05 10:52:07;;;;;;;;;4.00;4.00;;;;;;;;5033338;28;45549;-65
2022/05/05 10:54:33;;;;;;;;;5.50;4.75;;;;;;;;5036537;28;45515;-65
2022/05/05 10:57:18;;;;;;;;;5.50;4.50;;;;;;;;5035098;28;45379;-65
2022/05/05 11:00:02;;;;;;;;;6.25;6.25;;;;;;;;5035401;28;45527;-65
2022/05/05 11:02:27;;;;;;;;;4.75;4.25;;;;;;;;5035314;28;45335;-65
2022/05/05 11:05:12;;;;;;;;;3.75;3.75;;;;;;;;5035221;28;45401;-65
2022/05/05 11:07:37;;;;;;;;;4.25;4.25;;;;;;;;5034174;28;48567;-63
2022/05/05 11:10:05;;;;;;;;;6.25;6.00;;;;;;;;5036248;28;45492;-64
2022/05/05 11:12:31;;;;;;;;;6.00;3.50;;;;;;;;5036308;28;45550;-65
2022/05/05 11:23:22;;;;;;;;;4.50;4.00;;;;;;;;5034495;28;45661;-65
2022/05/05 11:25:47;;;;;;;;;4.00;4.00;;;;;;;;5034788;28;45448;-65
2022/05/05 11:28:14;;;;;;;;;4.50;4.50;;;;;;;;5035230;28;45774;-65
2022/05/05 11:30:41;;;;;;;;;4.00;4.00;;;;;;;;5035331;28;46016;-65
2022/05/05 11:33:07;;;;;;;;;3.75;3.75;;;;;;;;5034325;28;45547;-65
2022/05/05 11:35:33;;;;;;;;;3.00;3.00;;;;;;;;5034668;28;45424;-65
2022/05/05 11:37:58;;;;;;;;;3.00;2.00;;;;;;;;5033424;28;47423;-64
2022/05/05 11:40:24;;;;;;;;;4.25;4.25;;;;;;;;5034851;28;45523;-64
2022/05/05 11:45:37;;;;;;;;;3.00;3.00;;;;;;;;5035786;28;45750;-65
2022/05/05 11:48:16;;;;;;;;;2.50;2.50;;;;;;;;5034298;28;46459;-64
2022/05/05 11:50:44;;;;;;;;;2.75;2.75;;;;;;;;5032570;28;46242;-64
2022/05/05 11:53:17;;;;;;;;;3.25;3.25;;;;;;;;5032303;28;45811;-65
2022/05/05 11:55:44;;;;;;;;;5.25;3.50;;;;;;;;5030793;28;45525;-65
2022/05/05 12:03:58;;;;;;;;;4.00;4.00;;;;;;;;5043705;28;45334;-64
2022/05/05 12:06:24;;;;;;;;;5.75;4.75;;;;;;;;5022190;28;45370;-64
2022/05/05 12:08:49;;;;;;;;;4.00;4.00;;;;;;;;5038515;28;45757;-65
2022/05/05 12:11:15;;;;;;;;;3.00;3.00;;;;;;;;5040984;28;45425;-65
2022/05/05 12:13:40;;;;;;;;;1.75;1.75;;;;;;;;5025185;28;45403;-65
2022/05/05 12:16:05;;;;;;;;;3.00;2.75;;;;;;;;5047261;28;45427;-65
2022/05/05 12:18:31;;;;;;;;;5.25;5.00;;;;;;;;5021987;28;45881;-65
2022/05/05 12:20:57;;;;;;;;;3.50;3.50;;;;;;;;5038293;28;45389;-65
2022/05/05 12:23:24;;;;;;;;;2.75;2.75;;;;;;;;5039957;28;45606;-64
2022/05/05 12:25:49;;;;;;;;;4.00;4.00;;;;;;;;5025583;28;45498;-64
2022/05/05 12:28:14;;;;;;;;;2.75;2.75;;;;;;;;5046486;28;46509;-65
2022/05/05 12:30:43;;;;;;;;;3.50;3.50;;;;;;;;5023349;28;45335;-64
2022/05/05 12:33:09;;;;;;;;;3.00;3.00;;;;;;;;5039494;28;45619;-64
2022/05/05 12:35:38;;;;;;;;;2.75;2.75;;;;;;;;5038806;28;45447;-64
2022/05/05 12:38:05;;;;;;;;;3.50;3.50;;;;;;;;5031428;28;45989;-64
2022/05/05 12:40:31;;;;;;;;;3.25;2.75;;;;;;;;5044528;28;46284;-63
2022/05/05 12:42:59;;;;;;;;;2.75;2.75;;;;;;;;5027304;28;45440;-65
2022/05/05 12:45:24;;;;;;;;;2.50;2.00;;;;;;;;5036866;28;45474;-64
2022/05/05 12:47:50;;;;;;;;;2.25;2.25;;;;;;;;5030530;28;45538;-65
2022/05/05 12:50:25;;;;;;;;;2.25;2.25;;;;;;;;5029620;28;45461;-65
2022/05/05 13:01:01;;;;;;;;;3.00;3.00;;;;;;;;5035338;28;45444;-64
2022/05/05 13:03:27;;;;;;;;;4.00;2.00;;;;;;;;5039764;28;45536;-64
2022/05/05 13:05:52;;;;;;;;;1.25;1.00;;;;;;;;5030117;28;45575;-65
2022/05/05 13:08:17;;;;;;;;;1.50;1.50;;;;;;;;5030332;28;46413;-65
2022/05/05 13:10:42;;;;;;;;;3.00;3.00;;;;;;;;5059091;28;45527;-64
2022/05/05 13:13:08;;;;;;;;;2.00;2.00;;;;;;;;5026410;28;45599;-65
2022/05/05 13:15:34;;;;;;;;;2.25;2.25;;;;;;;;5041707;28;45522;-64
2022/05/05 13:17:59;;;;;;;;;2.00;2.00;;;;;;;;5029226;28;45714;-65
2022/05/05 13:20:24;;;;;;;;;3.25;3.25;;;;;;;;5031575;28;45465;-65
2022/05/05 13:22:49;;;;;;;;;5.33;3.00;;;;;;;;5044682;28;45475;-65
2022/05/05 13:25:15;;;;;;;;;2.00;2.00;;;;;;;;5026471;28;45489;-65
2022/05/05 13:27:40;;;;;;;;;4.00;4.00;;;;;;;;5042142;28;45552;-65
2022/05/05 13:30:06;;;;;;;;;3.75;3.00;;;;;;;;5025680;28;45580;-65
2022/05/05 13:32:31;;;;;;;;;3.75;3.75;;;;;;;;5032846;28;45604;-65
2022/05/05 13:34:56;;;;;;;;;7.25;5.00;;;;;;;;5044272;28;45773;-65
2022/05/05 13:37:21;;;;;;;;;3.00;2.00;;;;;;;;5025118;28;46488;-65
2022/05/05 13:39:47;;;;;;;;;2.75;2.75;;;;;;;;5040556;28;46052;-65
2022/05/05 13:42:13;;;;;;;;;4.00;2.50;;;;;;;;5022809;28;45404;-64
2022/05/05 13:44:38;;;;;;;;;3.00;3.00;;;;;;;;5034030;28;45541;-65
2022/05/05 13:47:03;;;;;;;;;2.50;2.50;;;;;;;;5043142;28;47699;-66
2022/05/05 13:49:28;;;;;;;;;6.25;3.00;;;;;;;;5018382;28;45464;-66
2022/05/05 13:51:54;;;;;;;;;2.25;2.00;;;;;;;;5041882;28;45460;-66
2022/05/05 13:54:19;;;;;;;;;2.00;2.00;;;;;;;;5022250;28;45421;-67
2022/05/05 13:56:44;;;;;;;;;3.25;3.25;;;;;;;;5034156;28;47690;-66
2022/05/05 13:59:09;;;;;;;;;2.25;2.25;;;;;;;;5040226;28;45466;-64
2022/05/05 14:01:36;;;;;;;;;3.00;1.50;;;;;;;;5023327;28;45456;-66
2022/05/05 14:04:01;;;;;;;;;2.75;2.75;;;;;;;;5044759;28;45444;-66
2022/05/05 14:06:28;;;;;;;;;4.00;4.00;;;;;;;;5019801;28;46935;-66
2022/05/05 14:14:21;;;;;;;;;1.50;1.50;;;;;;;;5026474;28;45382;-66
2022/05/05 14:16:46;;;;;;;;;2.00;2.00;;;;;;;;5043724;28;46138;-66
2022/05/05 14:19:11;;;;;;;;;3.25;3.25;;;;;;;;5025198;28;45534;-66
2022/05/05 14:21:36;;;;;;;;;4.00;4.00;;;;;;;;5033969;28;45475;-67
2022/05/05 14:24:02;;;;;;;;;4.00;3.00;;;;;;;;5022563;28;45787;-67
2022/05/05 14:26:27;;;;;;;;;3.00;3.00;;;;;;;;5030281;28;45855;-66
2022/05/05 14:28:53;;;;;;;;;4.00;3.00;;;;;;;;5043375;28;45516;-67
2022/05/05 14:31:18;;;;;;;;;4.75;3.50;;;;;;;;5022982;28;45588;-66
2022/05/05 14:33:46;;;;;;;;;2.75;2.75;;;;;;;;5039404;28;45548;-65
2022/05/05 14:36:11;;;;;;;;;2.25;2.25;;;;;;;;5022936;28;45618;-65
2022/05/05 14:38:36;;;;;;;;;4.75;3.00;;;;;;;;5032910;28;45380;-66
2022/05/05 14:41:01;;;;;;;;;2.00;2.00;;;;;;;;5043128;28;45408;-65
2022/05/05 14:43:27;;;;;;;;;4.00;4.00;;;;;;;;5023396;28;45385;-66
2022/05/05 14:45:53;;;;;;;;;2.00;2.00;;;;;;;;5042804;28;47533;-65
2022/05/05 14:48:18;;;;;;;;;2.00;2.00;;;;;;;;5021750;28;45564;-66
2022/05/05 14:50:44;;;;;;;;;3.75;2.25;;;;;;;;5033695;28;45511;-66
2022/05/05 14:53:09;;;;;;;;;2.50;2.50;;;;;;;;5032254;28;45534;-65
2022/05/05 14:55:34;;;;;;;;;2.75;2.75;;;;;;;;5020435;28;46405;-65
2022/05/05 14:57:59;;;;;;;;;2.00;2.00;;;;;;;;5044961;28;45626;-65
2022/05/05 15:00:25;;;;;;;;;2.50;2.50;;;;;;;;5020139;28;45279;-65
2022/05/05 15:02:50;;;;;;;;;2.00;2.00;;;;;;;;5031929;28;45374;-65
2022/05/05 15:05:16;;;;;;;;;3.50;3.25;;;;;;;;5038819;28;48251;-65
2022/05/05 15:07:42;;;;;;;;;2.00;2.00;;;;;;;;5024482;28;45517;-65
2022/05/05 15:10:07;;;;;;;;;1.50;1.50;;;;;;;;5043985;28;45464;-64
2022/05/05 15:12:32;;;;;;;;;2.25;2.25;;;;;;;;5020322;28;45495;-65
2022/05/05 15:14:57;;;;;;;;;2.00;2.00;;;;;;;;5033486;28;46245;-64
2022/05/05 15:17:23;;;;;;;;;1.33;1.33;;;;;;;;5036827;28;45555;-66
2022/05/05 15:19:48;;;;;;;;;2.25;2.25;;;;;;;;5025511;28;45591;-65
2022/05/05 15:22:13;;;;;;;;;2.00;2.00;;;;;;;;5043194;28;45500;-67
2022/05/05 15:24:39;;;;;;;;;3.00;3.00;;;;;;;;5020710;28;45533;-66
2022/05/05 15:27:05;;;;;;;;;4.00;3.00;;;;;;;;5034428;28;45496;-64